sensor_id;sensor_type;location;lat;lon;timestamp;temperature;humidity
22319;DHT22;11327;52.334;9.506;2022-09-09T00:08:47;15.50;99.90
22319;DHT22;11327;52.334;9.506;2022-09-09T00:12:14;15.50;99.90
22319;DHT22;11327;52.334;9.506;2022-09-09T00:15:53;15.40;99.90
22319;DHT22;11327;52.334;9.506;2022-09-09T00:22:34;15.40;99.90
22319;DHT22;11327;52.334;9.506;2022-09-09T00:29:50;15.50;99.90
22319;DHT22;11327;52.334;9.506;2022-09-09T00:33:12;15.50;99.90
22319;DHT22;11327;52.334;9.506;2022-09-09T00:36:35;15.50;99.90
22319;DHT22;11327;52.334;9.506;2022-09-09T00:40:01;15.50;99.90
22319;DHT22;11327;52.334;9.506;2022-09-09T00:43:31;15.50;99.90
22319;DHT22;11327;52.334;9.506;2022-09-09T00:46:59;15.60;99.90
22319;DHT22;11327;52.334;9.506;2022-09-09T00:57:34;15.40;99.90
22319;DHT22;11327;52.334;9.506;2022-09-09T01:01:08;15.40;99.90
22319;DHT22;11327;52.334;9.506;2022-09-09T01:04:32;15.30;99.90
22319;DHT22;11327;52.334;9.506;2022-09-09T01:07:54;15.30;99.90
22319;DHT22;11327;52.334;9.506;2022-09-09T01:11:27;15.30;99.90
22319;DHT22;11327;52.334;9.506;2022-09-09T01:14:52;15.30;99.90
22319;DHT22;11327;52.334;9.506;2022-09-09T01:18:17;15.30;99.90
22319;DHT22;11327;52.334;9.506;2022-09-09T01:28:47;15.30;99.90
22319;DHT22;11327;52.334;9.506;2022-09-09T01:32:42;15.30;99.90
22319;DHT22;11327;52.334;9.506;2022-09-09T01:36:29;15.20;99.90
22319;DHT22;11327;52.334;9.506;2022-09-09T01:39:49;15.20;99.90
22319;DHT22;11327;52.334;9.506;2022-09-09T01:43:10;15.20;99.90
22319;DHT22;11327;52.334;9.506;2022-09-09T01:46:31;15.20;99.90
22319;DHT22;11327;52.334;9.506;2022-09-09T01:49:52;15.30;99.90
22319;DHT22;11327;52.334;9.506;2022-09-09T01:53:14;15.20;99.90
22319;DHT22;11327;52.334;9.506;2022-09-09T01:57:06;15.20;99.90
22319;DHT22;11327;52.334;9.506;2022-09-09T02:00:20;15.20;99.90
22319;DHT22;11327;52.334;9.506;2022-09-09T02:03:44;15.20;99.90
22319;DHT22;11327;52.334;9.506;2022-09-09T02:07:20;15.20;99.90
22319;DHT22;11327;52.334;9.506;2022-09-09T02:10:46;15.20;99.90
22319;DHT22;11327;52.334;9.506;2022-09-09T02:14:14;15.20;99.90
22319;DHT22;11327;52.334;9.506;2022-09-09T02:17:36;15.20;99.90
22319;DHT22;11327;52.334;9.506;2022-09-09T02:20:59;15.20;99.90
22319;DHT22;11327;52.334;9.506;2022-09-09T02:24:21;15.20;99.90
22319;DHT22;11327;52.334;9.506;2022-09-09T02:27:44;15.20;99.90
22319;DHT22;11327;52.334;9.506;2022-09-09T02:31:06;15.10;99.90
22319;DHT22;11327;52.334;9.506;2022-09-09T02:34:28;15.10;99.90
22319;DHT22;11327;52.334;9.506;2022-09-09T02:37:52;15.10;99.90
22319;DHT22;11327;52.334;9.506;2022-09-09T02:41:14;15.20;99.90
22319;DHT22;11327;52.334;9.506;2022-09-09T02:44:35;15.10;99.90
22319;DHT22;11327;52.334;9.506;2022-09-09T02:48:17;15.10;99.90
22319;DHT22;11327;52.334;9.506;2022-09-09T02:55:09;15.20;99.90
22319;DHT22;11327;52.334;9.506;2022-09-09T02:58:29;15.20;99.90
22319;DHT22;11327;52.334;9.506;2022-09-09T03:01:50;15.20;99.90
22319;DHT22;11327;52.334;9.506;2022-09-09T03:05:11;15.20;99.90
22319;DHT22;11327;52.334;9.506;2022-09-09T03:08:33;15.20;99.90
22319;DHT22;11327;52.334;9.506;2022-09-09T03:11:54;15.20;99.90
22319;DHT22;11327;52.334;9.506;2022-09-09T03:15:16;15.20;99.90
22319;DHT22;11327;52.334;9.506;2022-09-09T03:18:37;15.30;99.90
22319;DHT22;11327;52.334;9.506;2022-09-09T03:21:58;15.30;99.90
22319;DHT22;11327;52.334;9.506;2022-09-09T03:25:19;15.40;99.90
22319;DHT22;11327;52.334;9.506;2022-09-09T03:28:41;15.50;99.90
22319;DHT22;11327;52.334;9.506;2022-09-09T03:32:02;15.50;99.90
22319;DHT22;11327;52.334;9.506;2022-09-09T03:35:23;15.70;99.90
22319;DHT22;11327;52.334;9.506;2022-09-09T03:38:44;15.70;99.90
22319;DHT22;11327;52.334;9.506;2022-09-09T03:42:05;15.70;99.90
22319;DHT22;11327;52.334;9.506;2022-09-09T03:45:26;15.80;99.90
22319;DHT22;11327;52.334;9.506;2022-09-09T03:48:47;15.80;99.90
22319;DHT22;11327;52.334;9.506;2022-09-09T03:52:09;15.70;99.90
22319;DHT22;11327;52.334;9.506;2022-09-09T03:55:30;15.70;99.90
22319;DHT22;11327;52.334;9.506;2022-09-09T03:58:51;15.70;99.90
22319;DHT22;11327;52.334;9.506;2022-09-09T04:02:12;15.70;99.90
22319;DHT22;11327;52.334;9.506;2022-09-09T04:05:33;15.80;99.90
22319;DHT22;11327;52.334;9.506;2022-09-09T04:08:54;15.80;99.90
22319;DHT22;11327;52.334;9.506;2022-09-09T04:12:16;15.80;99.90
22319;DHT22;11327;52.334;9.506;2022-09-09T04:15:37;15.80;99.90
22319;DHT22;11327;52.334;9.506;2022-09-09T04:18:58;15.80;99.90
22319;DHT22;11327;52.334;9.506;2022-09-09T04:22:20;15.80;99.90
22319;DHT22;11327;52.334;9.506;2022-09-09T04:25:51;15.70;99.90
22319;DHT22;11327;52.334;9.506;2022-09-09T04:29:12;15.70;99.90
22319;DHT22;11327;52.334;9.506;2022-09-09T04:32:33;15.70;99.90
22319;DHT22;11327;52.334;9.506;2022-09-09T04:35:54;15.70;99.90
22319;DHT22;11327;52.334;9.506;2022-09-09T04:39:15;15.70;99.90
22319;DHT22;11327;52.334;9.506;2022-09-09T04:42:36;15.60;99.90
22319;DHT22;11327;52.334;9.506;2022-09-09T04:45:57;15.60;99.90
22319;DHT22;11327;52.334;9.506;2022-09-09T04:49:19;15.60;99.90
22319;DHT22;11327;52.334;9.506;2022-09-09T04:52:40;15.60;99.90
22319;DHT22;11327;52.334;9.506;2022-09-09T04:56:04;15.70;99.90
22319;DHT22;11327;52.334;9.506;2022-09-09T04:59:25;15.70;99.90
22319;DHT22;11327;52.334;9.506;2022-09-09T05:02:46;15.70;99.90
22319;DHT22;11327;52.334;9.506;2022-09-09T05:06:10;15.70;99.90
22319;DHT22;11327;52.334;9.506;2022-09-09T05:09:31;15.60;99.90
22319;DHT22;11327;52.334;9.506;2022-09-09T05:12:53;15.70;99.90
22319;DHT22;11327;52.334;9.506;2022-09-09T05:16:14;15.70;99.90
22319;DHT22;11327;52.334;9.506;2022-09-09T05:19:35;15.70;99.90
22319;DHT22;11327;52.334;9.506;2022-09-09T05:22:57;15.80;99.90
22319;DHT22;11327;52.334;9.506;2022-09-09T05:26:20;15.80;99.90
22319;DHT22;11327;52.334;9.506;2022-09-09T05:29:41;15.80;99.90
22319;DHT22;11327;52.334;9.506;2022-09-09T05:33:04;15.80;99.90
22319;DHT22;11327;52.334;9.506;2022-09-09T05:36:27;15.70;99.90
22319;DHT22;11327;52.334;9.506;2022-09-09T05:39:48;15.80;99.90
22319;DHT22;11327;52.334;9.506;2022-09-09T05:43:08;15.70;99.90
22319;DHT22;11327;52.334;9.506;2022-09-09T05:46:29;15.80;99.90
22319;DHT22;11327;52.334;9.506;2022-09-09T05:49:51;15.80;99.90
22319;DHT22;11327;52.334;9.506;2022-09-09T05:53:12;15.80;99.90
22319;DHT22;11327;52.334;9.506;2022-09-09T05:56:33;15.80;99.90
22319;DHT22;11327;52.334;9.506;2022-09-09T05:59:54;15.80;99.90
22319;DHT22;11327;52.334;9.506;2022-09-09T06:03:15;15.90;99.90
22319;DHT22;11327;52.334;9.506;2022-09-09T06:06:38;15.90;99.90
22319;DHT22;11327;52.334;9.506;2022-09-09T06:10:00;15.90;99.90
22319;DHT22;11327;52.334;9.506;2022-09-09T06:13:21;15.90;99.90
22319;DHT22;11327;52.334;9.506;2022-09-09T06:16:42;15.90;99.90
22319;DHT22;11327;52.334;9.506;2022-09-09T06:20:05;15.90;99.90
22319;DHT22;11327;52.334;9.506;2022-09-09T06:23:27;16.00;99.90
22319;DHT22;11327;52.334;9.506;2022-09-09T06:26:49;16.10;99.90
22319;DHT22;11327;52.334;9.506;2022-09-09T06:30:10;16.10;99.90
22319;DHT22;11327;52.334;9.506;2022-09-09T06:33:36;16.10;99.90
22319;DHT22;11327;52.334;9.506;2022-09-09T06:36:59;16.00;99.90
22319;DHT22;11327;52.334;9.506;2022-09-09T06:40:21;16.00;99.90
22319;DHT22;11327;52.334;9.506;2022-09-09T06:43:42;15.90;99.90
22319;DHT22;11327;52.334;9.506;2022-09-09T06:47:03;15.90;99.90
22319;DHT22;11327;52.334;9.506;2022-09-09T06:50:24;16.00;99.90
22319;DHT22;11327;52.334;9.506;2022-09-09T06:53:46;16.00;99.90
22319;DHT22;11327;52.334;9.506;2022-09-09T06:57:07;16.10;99.90
22319;DHT22;11327;52.334;9.506;2022-09-09T07:00:28;16.20;99.90
22319;DHT22;11327;52.334;9.506;2022-09-09T07:03:52;16.30;99.90
22319;DHT22;11327;52.334;9.506;2022-09-09T07:07:13;16.40;99.90
22319;DHT22;11327;52.334;9.506;2022-09-09T07:10:36;16.60;99.90
22319;DHT22;11327;52.334;9.506;2022-09-09T07:13:58;16.80;99.90
22319;DHT22;11327;52.334;9.506;2022-09-09T07:17:19;16.90;99.90
22319;DHT22;11327;52.334;9.506;2022-09-09T07:20:40;17.10;99.90
22319;DHT22;11327;52.334;9.506;2022-09-09T07:24:02;17.30;99.90
22319;DHT22;11327;52.334;9.506;2022-09-09T07:27:23;17.40;99.90
22319;DHT22;11327;52.334;9.506;2022-09-09T07:30:52;17.50;99.90
22319;DHT22;11327;52.334;9.506;2022-09-09T07:34:14;17.70;99.90
22319;DHT22;11327;52.334;9.506;2022-09-09T07:37:36;17.80;99.90
22319;DHT22;11327;52.334;9.506;2022-09-09T07:41:05;18.00;99.90
22319;DHT22;11327;52.334;9.506;2022-09-09T07:44:27;18.20;99.90
22319;DHT22;11327;52.334;9.506;2022-09-09T07:47:49;18.20;99.90
22319;DHT22;11327;52.334;9.506;2022-09-09T07:51:15;18.30;99.90
22319;DHT22;11327;52.334;9.506;2022-09-09T07:54:40;18.40;99.90
22319;DHT22;11327;52.334;9.506;2022-09-09T07:58:01;18.40;99.90
22319;DHT22;11327;52.334;9.506;2022-09-09T08:01:31;18.40;99.90
22319;DHT22;11327;52.334;9.506;2022-09-09T08:04:52;18.30;99.90
22319;DHT22;11327;52.334;9.506;2022-09-09T08:08:14;18.30;99.90
22319;DHT22;11327;52.334;9.506;2022-09-09T08:11:35;18.30;99.90
22319;DHT22;11327;52.334;9.506;2022-09-09T08:14:56;18.20;99.90
22319;DHT22;11327;52.334;9.506;2022-09-09T08:18:17;18.30;99.90
22319;DHT22;11327;52.334;9.506;2022-09-09T08:21:39;18.30;99.90
22319;DHT22;11327;52.334;9.506;2022-09-09T08:25:00;18.30;99.90
22319;DHT22;11327;52.334;9.506;2022-09-09T08:28:22;18.30;99.90
22319;DHT22;11327;52.334;9.506;2022-09-09T08:31:46;18.30;99.90
22319;DHT22;11327;52.334;9.506;2022-09-09T08:35:08;18.30;99.90
22319;DHT22;11327;52.334;9.506;2022-09-09T08:38:29;18.30;99.90
22319;DHT22;11327;52.334;9.506;2022-09-09T08:45:34;18.40;99.90
22319;DHT22;11327;52.334;9.506;2022-09-09T08:49:04;18.40;99.90
22319;DHT22;11327;52.334;9.506;2022-09-09T08:52:27;18.30;99.90
22319;DHT22;11327;52.334;9.506;2022-09-09T08:59:16;18.40;99.90
22319;DHT22;11327;52.334;9.506;2022-09-09T09:13:26;18.40;99.90
22319;DHT22;11327;52.334;9.506;2022-09-09T09:20:16;18.60;99.90
22319;DHT22;11327;52.334;9.506;2022-09-09T09:23:59;18.60;99.90
22319;DHT22;11327;52.334;9.506;2022-09-09T09:27:43;18.60;99.90
22319;DHT22;11327;52.334;9.506;2022-09-09T09:31:06;18.70;99.90
22319;DHT22;11327;52.334;9.506;2022-09-09T09:34:28;18.60;99.90
22319;DHT22;11327;52.334;9.506;2022-09-09T09:37:49;18.70;99.90
22319;DHT22;11327;52.334;9.506;2022-09-09T09:41:11;18.70;99.90
22319;DHT22;11327;52.334;9.506;2022-09-09T09:44:32;18.80;99.90
22319;DHT22;11327;52.334;9.506;2022-09-09T09:48:04;19.00;99.90
22319;DHT22;11327;52.334;9.506;2022-09-09T09:51:27;19.10;99.90
22319;DHT22;11327;52.334;9.506;2022-09-09T09:54:50;19.20;99.90
22319;DHT22;11327;52.334;9.506;2022-09-09T09:58:15;19.30;99.90
22319;DHT22;11327;52.334;9.506;2022-09-09T10:01:37;19.40;99.90
22319;DHT22;11327;52.334;9.506;2022-09-09T10:05:04;19.60;99.90
22319;DHT22;11327;52.334;9.506;2022-09-09T10:08:27;19.70;99.90
22319;DHT22;11327;52.334;9.506;2022-09-09T10:12:05;20.00;99.90
22319;DHT22;11327;52.334;9.506;2022-09-09T10:19:05;20.10;99.90
22319;DHT22;11327;52.334;9.506;2022-09-09T10:22:28;20.10;99.90
22319;DHT22;11327;52.334;9.506;2022-09-09T10:36:44;20.10;99.90
22319;DHT22;11327;52.334;9.506;2022-09-09T10:55:00;19.50;99.90
22319;DHT22;11327;52.334;9.506;2022-09-09T10:58:25;19.50;99.90
22319;DHT22;11327;52.334;9.506;2022-09-09T11:05:47;19.50;99.90
22319;DHT22;11327;52.334;9.506;2022-09-09T11:09:14;19.50;99.90
22319;DHT22;11327;52.334;9.506;2022-09-09T11:12:36;19.50;99.90
22319;DHT22;11327;52.334;9.506;2022-09-09T11:16:01;19.50;99.90
22319;DHT22;11327;52.334;9.506;2022-09-09T11:19:34;19.50;99.90
22319;DHT22;11327;52.334;9.506;2022-09-09T11:23:04;19.50;99.90
22319;DHT22;11327;52.334;9.506;2022-09-09T11:26:31;19.50;99.90
22319;DHT22;11327;52.334;9.506;2022-09-09T11:33:42;19.50;99.90
22319;DHT22;11327;52.334;9.506;2022-09-09T11:40:35;19.30;99.90
22319;DHT22;11327;52.334;9.506;2022-09-09T11:43:56;19.20;99.90
22319;DHT22;11327;52.334;9.506;2022-09-09T11:47:29;19.10;99.90
22319;DHT22;11327;52.334;9.506;2022-09-09T11:51:03;18.90;99.90
22319;DHT22;11327;52.334;9.506;2022-09-09T11:54:31;18.80;99.90
22319;DHT22;11327;52.334;9.506;2022-09-09T11:58:05;18.70;99.90
22319;DHT22;11327;52.334;9.506;2022-09-09T12:01:43;18.60;99.90
22319;DHT22;11327;52.334;9.506;2022-09-09T12:05:07;18.60;99.90
22319;DHT22;11327;52.334;9.506;2022-09-09T12:08:30;18.70;99.90
22319;DHT22;11327;52.334;9.506;2022-09-09T12:11:51;18.70;99.90
22319;DHT22;11327;52.334;9.506;2022-09-09T12:15:19;18.80;99.90
22319;DHT22;11327;52.334;9.506;2022-09-09T12:18:41;19.00;99.90
22319;DHT22;11327;52.334;9.506;2022-09-09T12:29:41;19.30;99.90
22319;DHT22;11327;52.334;9.506;2022-09-09T12:33:12;19.50;99.90
22319;DHT22;11327;52.334;9.506;2022-09-09T12:36:33;19.60;99.90
22319;DHT22;11327;52.334;9.506;2022-09-09T12:40:00;19.80;99.90
22319;DHT22;11327;52.334;9.506;2022-09-09T12:43:24;19.90;99.90
22319;DHT22;11327;52.334;9.506;2022-09-09T12:46:46;20.10;99.90
22319;DHT22;11327;52.334;9.506;2022-09-09T12:50:29;20.20;99.90
22319;DHT22;11327;52.334;9.506;2022-09-09T12:53:47;20.10;99.90
22319;DHT22;11327;52.334;9.506;2022-09-09T12:57:11;20.10;99.90
22319;DHT22;11327;52.334;9.506;2022-09-09T13:00:33;20.00;99.90
22319;DHT22;11327;52.334;9.506;2022-09-09T13:03:55;20.00;99.90
22319;DHT22;11327;52.334;9.506;2022-09-09T13:07:18;20.00;99.90
22319;DHT22;11327;52.334;9.506;2022-09-09T13:10:59;19.90;99.90
22319;DHT22;11327;52.334;9.506;2022-09-09T13:14:17;19.90;99.90
22319;DHT22;11327;52.334;9.506;2022-09-09T13:17:39;19.80;99.90
22319;DHT22;11327;52.334;9.506;2022-09-09T13:21:02;19.80;99.90
22319;DHT22;11327;52.334;9.506;2022-09-09T13:24:32;19.90;99.90
22319;DHT22;11327;52.334;9.506;2022-09-09T13:27:59;19.90;99.90
22319;DHT22;11327;52.334;9.506;2022-09-09T13:31:33;19.90;99.90
22319;DHT22;11327;52.334;9.506;2022-09-09T13:38:15;20.20;99.90
22319;DHT22;11327;52.334;9.506;2022-09-09T13:41:42;20.50;99.90
22319;DHT22;11327;52.334;9.506;2022-09-09T13:45:05;20.80;99.90
22319;DHT22;11327;52.334;9.506;2022-09-09T13:48:27;20.80;99.90
22319;DHT22;11327;52.334;9.506;2022-09-09T13:51:50;20.60;99.90
22319;DHT22;11327;52.334;9.506;2022-09-09T13:55:13;20.50;99.90
22319;DHT22;11327;52.334;9.506;2022-09-09T13:58:33;20.30;99.90
22319;DHT22;11327;52.334;9.506;2022-09-09T14:01:54;20.30;99.90
22319;DHT22;11327;52.334;9.506;2022-09-09T14:05:16;20.20;99.90
22319;DHT22;11327;52.334;9.506;2022-09-09T14:08:38;20.30;99.90
22319;DHT22;11327;52.334;9.506;2022-09-09T14:11:59;20.60;99.90
22319;DHT22;11327;52.334;9.506;2022-09-09T14:15:21;21.00;99.90
22319;DHT22;11327;52.334;9.506;2022-09-09T14:18:43;21.40;99.90
22319;DHT22;11327;52.334;9.506;2022-09-09T14:22:04;21.60;99.90
22319;DHT22;11327;52.334;9.506;2022-09-09T14:25:25;21.60;99.90
22319;DHT22;11327;52.334;9.506;2022-09-09T14:28:47;21.70;99.90
22319;DHT22;11327;52.334;9.506;2022-09-09T14:32:08;21.80;99.90
22319;DHT22;11327;52.334;9.506;2022-09-09T14:35:29;21.90;99.90
22319;DHT22;11327;52.334;9.506;2022-09-09T14:38:50;21.80;99.90
22319;DHT22;11327;52.334;9.506;2022-09-09T14:42:11;21.70;99.90
22319;DHT22;11327;52.334;9.506;2022-09-09T14:45:32;21.60;99.90
22319;DHT22;11327;52.334;9.506;2022-09-09T14:48:53;21.50;99.90
22319;DHT22;11327;52.334;9.506;2022-09-09T14:52:14;21.50;99.90
22319;DHT22;11327;52.334;9.506;2022-09-09T14:55:36;21.50;99.90
22319;DHT22;11327;52.334;9.506;2022-09-09T14:58:58;21.60;99.90
22319;DHT22;11327;52.334;9.506;2022-09-09T15:02:21;21.70;99.90
22319;DHT22;11327;52.334;9.506;2022-09-09T15:05:42;21.60;99.90
22319;DHT22;11327;52.334;9.506;2022-09-09T15:09:03;21.50;99.90
22319;DHT22;11327;52.334;9.506;2022-09-09T15:12:24;21.50;99.90
22319;DHT22;11327;52.334;9.506;2022-09-09T15:15:45;21.30;99.90
22319;DHT22;11327;52.334;9.506;2022-09-09T15:19:07;21.30;99.90
22319;DHT22;11327;52.334;9.506;2022-09-09T15:22:29;21.10;99.90
22319;DHT22;11327;52.334;9.506;2022-09-09T15:25:52;21.00;99.90
22319;DHT22;11327;52.334;9.506;2022-09-09T15:29:13;21.10;99.90
22319;DHT22;11327;52.334;9.506;2022-09-09T15:32:34;21.30;99.90
22319;DHT22;11327;52.334;9.506;2022-09-09T15:35:55;21.40;99.90
22319;DHT22;11327;52.334;9.506;2022-09-09T15:39:17;21.60;99.90
22319;DHT22;11327;52.334;9.506;2022-09-09T15:42:38;21.70;99.90
22319;DHT22;11327;52.334;9.506;2022-09-09T15:46:05;21.80;99.90
22319;DHT22;11327;52.334;9.506;2022-09-09T15:49:26;21.80;99.90
22319;DHT22;11327;52.334;9.506;2022-09-09T15:52:47;21.70;99.90
22319;DHT22;11327;52.334;9.506;2022-09-09T15:56:08;21.80;99.90
22319;DHT22;11327;52.334;9.506;2022-09-09T15:59:30;21.80;99.90
22319;DHT22;11327;52.334;9.506;2022-09-09T16:02:51;21.90;99.90
22319;DHT22;11327;52.334;9.506;2022-09-09T16:06:14;21.80;99.90
22319;DHT22;11327;52.334;9.506;2022-09-09T16:09:36;21.70;99.90
22319;DHT22;11327;52.334;9.506;2022-09-09T16:12:57;21.60;99.90
22319;DHT22;11327;52.334;9.506;2022-09-09T16:16:20;21.40;99.90
22319;DHT22;11327;52.334;9.506;2022-09-09T16:19:42;21.30;99.90
22319;DHT22;11327;52.334;9.506;2022-09-09T16:23:03;21.10;99.90
22319;DHT22;11327;52.334;9.506;2022-09-09T16:26:25;21.00;99.90
22319;DHT22;11327;52.334;9.506;2022-09-09T16:29:46;20.80;99.90
22319;DHT22;11327;52.334;9.506;2022-09-09T16:33:07;20.70;99.90
22319;DHT22;11327;52.334;9.506;2022-09-09T16:36:30;20.60;99.90
22319;DHT22;11327;52.334;9.506;2022-09-09T16:39:51;20.50;99.90
22319;DHT22;11327;52.334;9.506;2022-09-09T16:43:14;20.40;99.90
22319;DHT22;11327;52.334;9.506;2022-09-09T16:46:38;20.30;99.90
22319;DHT22;11327;52.334;9.506;2022-09-09T16:50:00;20.30;99.90
22319;DHT22;11327;52.334;9.506;2022-09-09T16:53:21;20.20;99.90
22319;DHT22;11327;52.334;9.506;2022-09-09T16:56:44;20.20;99.90
22319;DHT22;11327;52.334;9.506;2022-09-09T17:00:07;20.10;99.90
22319;DHT22;11327;52.334;9.506;2022-09-09T17:03:28;20.00;99.90
22319;DHT22;11327;52.334;9.506;2022-09-09T17:06:51;19.90;99.90
22319;DHT22;11327;52.334;9.506;2022-09-09T17:10:13;19.60;99.90
22319;DHT22;11327;52.334;9.506;2022-09-09T17:13:35;19.50;99.90
22319;DHT22;11327;52.334;9.506;2022-09-09T17:16:56;19.40;99.90
22319;DHT22;11327;52.334;9.506;2022-09-09T17:20:18;19.40;99.90
22319;DHT22;11327;52.334;9.506;2022-09-09T17:23:41;19.20;99.90
22319;DHT22;11327;52.334;9.506;2022-09-09T17:27:02;19.10;99.90
22319;DHT22;11327;52.334;9.506;2022-09-09T17:30:24;19.00;99.90
22319;DHT22;11327;52.334;9.506;2022-09-09T17:33:47;18.90;99.90
22319;DHT22;11327;52.334;9.506;2022-09-09T17:37:13;18.80;99.90
22319;DHT22;11327;52.334;9.506;2022-09-09T17:40:34;18.80;99.90
22319;DHT22;11327;52.334;9.506;2022-09-09T17:43:55;18.80;99.90
22319;DHT22;11327;52.334;9.506;2022-09-09T17:47:17;18.70;99.90
22319;DHT22;11327;52.334;9.506;2022-09-09T17:50:38;18.70;99.90
22319;DHT22;11327;52.334;9.506;2022-09-09T17:54:08;18.70;99.90
22319;DHT22;11327;52.334;9.506;2022-09-09T17:57:29;18.60;99.90
22319;DHT22;11327;52.334;9.506;2022-09-09T18:00:50;18.60;99.90
22319;DHT22;11327;52.334;9.506;2022-09-09T18:04:13;18.60;99.90
22319;DHT22;11327;52.334;9.506;2022-09-09T18:07:35;18.50;99.90
22319;DHT22;11327;52.334;9.506;2022-09-09T18:10:56;18.50;99.90
22319;DHT22;11327;52.334;9.506;2022-09-09T18:14:19;18.40;99.90
22319;DHT22;11327;52.334;9.506;2022-09-09T18:17:41;18.40;99.90
22319;DHT22;11327;52.334;9.506;2022-09-09T18:21:04;18.30;99.90
22319;DHT22;11327;52.334;9.506;2022-09-09T18:24:26;18.30;99.90
22319;DHT22;11327;52.334;9.506;2022-09-09T18:27:47;18.20;99.90
22319;DHT22;11327;52.334;9.506;2022-09-09T18:31:10;18.10;99.90
22319;DHT22;11327;52.334;9.506;2022-09-09T18:34:32;18.00;99.90
22319;DHT22;11327;52.334;9.506;2022-09-09T18:37:53;17.90;99.90
22319;DHT22;11327;52.334;9.506;2022-09-09T18:44:42;17.30;99.90
22319;DHT22;11327;52.334;9.506;2022-09-09T18:48:03;17.10;99.90
22319;DHT22;11327;52.334;9.506;2022-09-09T18:51:27;16.90;99.90
22319;DHT22;11327;52.334;9.506;2022-09-09T18:54:49;16.80;99.90
22319;DHT22;11327;52.334;9.506;2022-09-09T18:58:10;16.80;99.90
22319;DHT22;11327;52.334;9.506;2022-09-09T19:01:33;16.70;99.90
22319;DHT22;11327;52.334;9.506;2022-09-09T19:04:55;16.70;99.90
22319;DHT22;11327;52.334;9.506;2022-09-09T19:08:18;16.70;99.90
22319;DHT22;11327;52.334;9.506;2022-09-09T19:11:43;16.70;99.90
22319;DHT22;11327;52.334;9.506;2022-09-09T19:15:04;16.70;99.90
22319;DHT22;11327;52.334;9.506;2022-09-09T19:18:25;16.70;99.90
22319;DHT22;11327;52.334;9.506;2022-09-09T19:21:47;16.70;99.90
22319;DHT22;11327;52.334;9.506;2022-09-09T19:25:08;16.70;99.90
22319;DHT22;11327;52.334;9.506;2022-09-09T19:28:29;16.70;99.90
22319;DHT22;11327;52.334;9.506;2022-09-09T19:31:52;16.70;99.90
22319;DHT22;11327;52.334;9.506;2022-09-09T19:35:14;16.70;99.90
22319;DHT22;11327;52.334;9.506;2022-09-09T19:38:36;16.70;99.90
22319;DHT22;11327;52.334;9.506;2022-09-09T19:41:57;16.70;99.90
22319;DHT22;11327;52.334;9.506;2022-09-09T19:45:18;16.70;99.90
22319;DHT22;11327;52.334;9.506;2022-09-09T19:48:40;16.70;99.90
22319;DHT22;11327;52.334;9.506;2022-09-09T19:52:02;16.70;99.90
22319;DHT22;11327;52.334;9.506;2022-09-09T19:55:24;16.70;99.90
22319;DHT22;11327;52.334;9.506;2022-09-09T19:58:46;16.60;99.90
22319;DHT22;11327;52.334;9.506;2022-09-09T20:02:11;16.60;99.90
22319;DHT22;11327;52.334;9.506;2022-09-09T20:05:32;16.60;99.90
22319;DHT22;11327;52.334;9.506;2022-09-09T20:08:54;16.50;99.90
22319;DHT22;11327;52.334;9.506;2022-09-09T20:12:15;16.60;99.90
22319;DHT22;11327;52.334;9.506;2022-09-09T20:15:36;16.50;99.90
22319;DHT22;11327;52.334;9.506;2022-09-09T20:19:03;16.50;99.90
22319;DHT22;11327;52.334;9.506;2022-09-09T20:22:26;16.50;99.90
22319;DHT22;11327;52.334;9.506;2022-09-09T20:25:47;16.40;99.90
22319;DHT22;11327;52.334;9.506;2022-09-09T20:29:13;16.40;99.90
22319;DHT22;11327;52.334;9.506;2022-09-09T20:32:34;16.40;99.90
22319;DHT22;11327;52.334;9.506;2022-09-09T20:35:55;16.40;99.90
22319;DHT22;11327;52.334;9.506;2022-09-09T20:39:18;16.40;99.90
22319;DHT22;11327;52.334;9.506;2022-09-09T20:42:40;16.30;99.90
22319;DHT22;11327;52.334;9.506;2022-09-09T20:46:02;16.30;99.90
22319;DHT22;11327;52.334;9.506;2022-09-09T20:49:24;16.30;99.90
22319;DHT22;11327;52.334;9.506;2022-09-09T20:52:45;16.20;99.90
22319;DHT22;11327;52.334;9.506;2022-09-09T20:56:08;16.20;99.90
22319;DHT22;11327;52.334;9.506;2022-09-09T20:59:29;16.20;99.90
22319;DHT22;11327;52.334;9.506;2022-09-09T21:02:54;16.20;99.90
22319;DHT22;11327;52.334;9.506;2022-09-09T21:06:15;16.10;99.90
22319;DHT22;11327;52.334;9.506;2022-09-09T21:09:36;16.10;99.90
22319;DHT22;11327;52.334;9.506;2022-09-09T21:12:57;16.10;99.90
22319;DHT22;11327;52.334;9.506;2022-09-09T21:16:20;16.10;99.90
22319;DHT22;11327;52.334;9.506;2022-09-09T21:19:42;16.10;99.90
22319;DHT22;11327;52.334;9.506;2022-09-09T21:23:03;16.10;99.90
22319;DHT22;11327;52.334;9.506;2022-09-09T21:26:25;16.00;99.90
22319;DHT22;11327;52.334;9.506;2022-09-09T21:29:46;16.00;99.90
22319;DHT22;11327;52.334;9.506;2022-09-09T21:33:08;16.10;99.90
22319;DHT22;11327;52.334;9.506;2022-09-09T21:36:30;16.10;99.90
22319;DHT22;11327;52.334;9.506;2022-09-09T21:39:51;16.00;99.90
22319;DHT22;11327;52.334;9.506;2022-09-09T21:43:12;16.00;99.90
22319;DHT22;11327;52.334;9.506;2022-09-09T21:46:34;16.00;99.90
22319;DHT22;11327;52.334;9.506;2022-09-09T21:49:56;16.00;99.90
22319;DHT22;11327;52.334;9.506;2022-09-09T21:53:18;15.90;99.90
22319;DHT22;11327;52.334;9.506;2022-09-09T21:56:39;15.90;99.90
22319;DHT22;11327;52.334;9.506;2022-09-09T22:00:02;15.90;99.90
22319;DHT22;11327;52.334;9.506;2022-09-09T22:03:23;15.90;99.90
22319;DHT22;11327;52.334;9.506;2022-09-09T22:06:44;16.00;99.90
22319;DHT22;11327;52.334;9.506;2022-09-09T22:10:06;16.00;99.90
22319;DHT22;11327;52.334;9.506;2022-09-09T22:13:27;16.00;99.90
22319;DHT22;11327;52.334;9.506;2022-09-09T22:16:49;16.00;99.90
22319;DHT22;11327;52.334;9.506;2022-09-09T22:20:11;16.00;99.90
22319;DHT22;11327;52.334;9.506;2022-09-09T22:23:32;16.00;99.90
22319;DHT22;11327;52.334;9.506;2022-09-09T22:26:53;16.00;99.90
22319;DHT22;11327;52.334;9.506;2022-09-09T22:30:15;16.00;99.90
22319;DHT22;11327;52.334;9.506;2022-09-09T22:33:36;16.00;99.90
22319;DHT22;11327;52.334;9.506;2022-09-09T22:36:57;16.00;99.90
22319;DHT22;11327;52.334;9.506;2022-09-09T22:40:18;16.00;99.90
22319;DHT22;11327;52.334;9.506;2022-09-09T22:43:42;16.00;99.90
22319;DHT22;11327;52.334;9.506;2022-09-09T22:47:03;16.00;99.90
22319;DHT22;11327;52.334;9.506;2022-09-09T22:50:24;15.90;99.90
22319;DHT22;11327;52.334;9.506;2022-09-09T22:53:45;15.90;99.90
22319;DHT22;11327;52.334;9.506;2022-09-09T22:57:06;15.90;99.90
22319;DHT22;11327;52.334;9.506;2022-09-09T23:00:29;15.90;99.90
22319;DHT22;11327;52.334;9.506;2022-09-09T23:03:50;15.80;99.90
22319;DHT22;11327;52.334;9.506;2022-09-09T23:07:11;15.80;99.90
22319;DHT22;11327;52.334;9.506;2022-09-09T23:10:32;15.80;99.90